Terminal Aerodrome Forecast
Issued by NWS

Home | Current Version | Previous Version | Text Only | Print | Product List | Glossary On
Versions: 1 2 3 4 5 6 7 8 9 10 11 12
000
FTUS41 KBTV 241720
TAFRUT
TAF
KRUT 241720Z 2418/2518 26010G20KT P6SM FEW120 SCT250
     FM250100 13007KT P6SM FEW090 SCT250
     FM250900 13006KT P6SM SCT070 BKN100
     FM251300 16008G17KT P6SM VCSH SCT035 OVC050
      AMD LTD TO CLD VIS AND WIND=

USA.gov is the U.S. government's official web portal to all federal, state and local government web resources and services.